Time;durP1;ratioP1;P1;durP2;ratioP2;P2;SDS_P1;SDS_P2;PMS_P1;PMS_P2;Temp;Humidity;BMP_temperature;BMP_pressure;BME280_temperature;BME280_humidity;BME280_pressure;Samples;Min_cycle;Max_cycle;Signal;HPM_P1;HPM_P2
2023/05/11 00:00:35;;;;;;;0.10;0.10;;;13.40;99.90;;;;;;5080507;28;20205;-84
2023/05/11 00:03:01;;;;;;;0.10;0.10;;;13.40;99.90;;;;;;5078555;28;20537;-83
2023/05/11 00:05:26;;;;;;;0.10;0.10;;;13.40;99.90;;;;;;5084113;28;20184;-84
2023/05/11 00:07:52;;;;;;;0.10;0.10;;;13.30;99.90;;;;;;5082074;28;20219;-83
2023/05/11 00:10:18;;;;;;;0.10;0.10;;;13.30;99.90;;;;;;5079436;28;20249;-83
2023/05/11 00:12:43;;;;;;;0.00;0.00;;;13.40;99.90;;;;;;5082381;28;20214;-82
2023/05/11 00:15:10;;;;;;;0.10;0.10;;;13.50;99.90;;;;;;5078899;28;20208;-83
2023/05/11 00:17:35;;;;;;;0.10;0.10;;;13.50;99.90;;;;;;5079226;28;20202;-83
2023/05/11 00:20:01;;;;;;;0.10;0.10;;;13.60;99.90;;;;;;5081906;28;20206;-83
2023/05/11 00:22:26;;;;;;;0.10;0.10;;;13.60;99.90;;;;;;5081035;28;20292;-84
2023/05/11 00:24:52;;;;;;;0.10;0.10;;;13.70;99.90;;;;;;5090219;28;20201;-84
2023/05/11 00:27:17;;;;;;;0.10;0.10;;;13.70;99.90;;;;;;5084080;28;20196;-84
2023/05/11 00:29:43;;;;;;;0.10;0.10;;;13.70;99.90;;;;;;5071378;28;20333;-84
2023/05/11 00:32:08;;;;;;;0.10;0.10;;;13.70;99.90;;;;;;5072471;28;20209;-83
2023/05/11 00:34:34;;;;;;;0.10;0.10;;;13.70;99.90;;;;;;5074515;28;20217;-83
2023/05/11 00:36:59;;;;;;;0.10;0.10;;;13.70;99.90;;;;;;5069387;28;20755;-84
2023/05/11 00:39:25;;;;;;;0.10;0.10;;;13.80;99.90;;;;;;5071778;28;20193;-84
2023/05/11 00:41:50;;;;;;;0.10;0.10;;;13.80;99.90;;;;;;5072776;28;20239;-83
2023/05/11 00:44:16;;;;;;;0.10;0.10;;;13.80;99.90;;;;;;5069842;28;20262;-84
2023/05/11 00:46:41;;;;;;;0.10;0.10;;;13.80;99.90;;;;;;5069965;28;20232;-83
2023/05/11 00:49:08;;;;;;;0.10;0.10;;;13.90;99.90;;;;;;5072286;28;20210;-83
2023/05/11 00:51:34;;;;;;;0.10;0.10;;;13.90;99.90;;;;;;5070250;28;20233;-84
2023/05/11 00:54:01;;;;;;;0.07;0.07;;;13.80;99.90;;;;;;5071496;28;20272;-83
2023/05/11 00:56:26;;;;;;;0.10;0.10;;;13.80;99.90;;;;;;5069197;28;20190;-84
2023/05/11 00:58:52;;;;;;;0.10;0.10;;;13.80;99.90;;;;;;5071416;28;20182;-84
2023/05/11 01:01:17;;;;;;;0.10;0.10;;;13.80;99.90;;;;;;5071767;28;20203;-83
2023/05/11 01:03:44;;;;;;;0.10;0.10;;;13.80;99.90;;;;;;5070717;28;20206;-84
2023/05/11 01:06:35;;;;;;;0.10;0.10;;;13.90;99.90;;;;;;5072197;28;20194;-83
2023/05/11 01:09:15;;;;;;;0.10;0.10;;;13.80;99.90;;;;;;5071318;28;20183;-83
2023/05/11 01:12:05;;;;;;;0.10;0.10;;;13.70;99.90;;;;;;5074043;28;20222;-83
2023/05/11 01:14:40;;;;;;;0.10;0.10;;;13.50;99.90;;;;;;5072967;28;20221;-84
2023/05/11 01:17:15;;;;;;;0.10;0.10;;;13.50;99.90;;;;;;5074236;28;20187;-82
2023/05/11 01:19:54;;;;;;;0.10;0.10;;;13.40;99.90;;;;;;5071848;28;20183;-83
2023/05/11 01:22:27;;;;;;;0.10;0.10;;;13.30;99.90;;;;;;5070706;28;20207;-83
2023/05/11 01:25:21;;;;;;;0.10;0.10;;;13.30;99.90;;;;;;5071689;28;20729;-84
2023/05/11 01:28:17;;;;;;;0.10;0.10;;;13.20;99.90;;;;;;5071837;28;20274;-84
2023/05/11 01:30:56;;;;;;;0.10;0.10;;;13.20;99.90;;;;;;5070030;28;20211;-84
2023/05/11 01:33:31;;;;;;;0.10;0.10;;;13.10;99.90;;;;;;5071353;28;20191;-84
2023/05/11 01:36:03;;;;;;;0.10;0.10;;;13.20;99.90;;;;;;5072257;28;20180;-83
2023/05/11 01:38:32;;;;;;;0.10;0.10;;;13.10;99.90;;;;;;5071320;28;20182;-83
2023/05/11 01:40:59;;;;;;;0.10;0.10;;;13.00;99.90;;;;;;5073125;28;20201;-83
2023/05/11 01:43:27;;;;;;;0.10;0.10;;;12.90;99.90;;;;;;5070595;28;20194;-83
2023/05/11 01:45:58;;;;;;;0.10;0.10;;;12.80;99.90;;;;;;5070659;28;20557;-84
2023/05/11 01:48:26;;;;;;;0.10;0.10;;;12.60;99.90;;;;;;5072757;28;20265;-84
2023/05/11 01:50:55;;;;;;;0.10;0.10;;;12.50;99.90;;;;;;5070735;28;20212;-83
2023/05/11 01:53:22;;;;;;;0.10;0.10;;;12.40;99.90;;;;;;5070854;28;20604;-83
2023/05/11 01:55:50;;;;;;;0.10;0.10;;;12.30;99.90;;;;;;5073410;28;20557;-84
2023/05/11 01:58:16;;;;;;;0.10;0.10;;;12.20;99.90;;;;;;5071984;28;20206;-83
2023/05/11 02:00:44;;;;;;;0.10;0.10;;;12.10;99.90;;;;;;5067980;28;20337;-84
2023/05/11 02:03:10;;;;;;;0.10;0.10;;;12.00;99.90;;;;;;5071373;28;20240;-83
2023/05/11 02:05:37;;;;;;;0.10;0.10;;;12.00;99.90;;;;;;5071151;28;20230;-83
2023/05/11 02:08:05;;;;;;;0.10;0.10;;;11.90;99.90;;;;;;5072092;28;20192;-83
2023/05/11 02:10:32;;;;;;;0.10;0.10;;;11.90;99.90;;;;;;5070644;28;20181;-83
2023/05/11 02:12:58;;;;;;;0.10;0.10;;;11.80;99.90;;;;;;5072899;28;20224;-84
2023/05/11 02:15:25;;;;;;;0.10;0.10;;;11.80;99.90;;;;;;5074234;28;20182;-84
2023/05/11 02:17:53;;;;;;;0.10;0.10;;;11.70;99.90;;;;;;5071610;28;20236;-83
2023/05/11 02:20:19;;;;;;;0.10;0.10;;;11.70;99.90;;;;;;5075440;28;20260;-83
2023/05/11 02:22:45;;;;;;;0.10;0.10;;;11.70;99.90;;;;;;5074532;28;20200;-83
2023/05/11 02:25:12;;;;;;;0.10;0.10;;;11.70;99.90;;;;;;5090410;28;20216;-82
2023/05/11 02:27:37;;;;;;;0.10;0.10;;;11.70;99.90;;;;;;5074291;28;20188;-83
2023/05/11 02:30:05;;;;;;;0.10;0.10;;;11.70;99.90;;;;;;5075774;28;20637;-84
2023/05/11 02:32:33;;;;;;;0.00;0.00;;;11.70;99.90;;;;;;5073297;28;20205;-83
2023/05/11 02:35:10;;;;;;;0.10;0.10;;;11.70;99.90;;;;;;5078686;28;20681;-83
2023/05/11 02:37:40;;;;;;;0.10;0.10;;;11.60;99.90;;;;;;5074278;28;20182;-83
2023/05/11 02:40:12;;;;;;;0.10;0.10;;;11.60;99.90;;;;;;5074370;28;20189;-84
2023/05/11 02:42:41;;;;;;;0.10;0.10;;;11.60;99.90;;;;;;5073822;28;20221;-83
2023/05/11 02:45:10;;;;;;;0.00;0.00;;;11.60;99.90;;;;;;5071995;28;20204;-82
2023/05/11 02:47:41;;;;;;;0.10;0.10;;;11.50;99.90;;;;;;5076333;28;20211;-84
2023/05/11 02:50:08;;;;;;;0.10;0.10;;;11.50;99.90;;;;;;5073194;28;20187;-84
2023/05/11 02:52:38;;;;;;;0.10;0.10;;;11.50;99.90;;;;;;5072970;28;20303;-83
2023/05/11 02:55:05;;;;;;;0.10;0.10;;;11.50;99.90;;;;;;5090691;28;20240;-83
2023/05/11 02:57:31;;;;;;;0.10;0.10;;;11.60;99.90;;;;;;5075542;28;20192;-83
2023/05/11 02:59:57;;;;;;;0.10;0.10;;;11.50;99.90;;;;;;5071801;28;20184;-83
2023/05/11 03:02:23;;;;;;;0.10;0.10;;;11.60;99.90;;;;;;5073687;28;20216;-84
2023/05/11 03:04:48;;;;;;;0.10;0.10;;;11.60;99.90;;;;;;5074565;28;20208;-83
2023/05/11 03:07:14;;;;;;;0.10;0.10;;;11.60;99.90;;;;;;5074816;28;20221;-82
2023/05/11 03:09:39;;;;;;;0.10;0.10;;;11.50;99.90;;;;;;5073565;28;20189;-84
2023/05/11 03:12:06;;;;;;;0.00;0.00;;;11.50;99.90;;;;;;5072630;28;20279;-83
2023/05/11 03:14:33;;;;;;;0.10;0.10;;;11.50;99.90;;;;;;5075282;28;20239;-83
2023/05/11 03:17:00;;;;;;;0.10;0.10;;;11.40;99.90;;;;;;5075981;28;20297;-83
2023/05/11 03:19:27;;;;;;;0.10;0.10;;;11.40;99.90;;;;;;5075436;28;20237;-84
2023/05/11 03:21:54;;;;;;;0.10;0.10;;;11.40;99.90;;;;;;5076994;28;20203;-83
2023/05/11 03:24:20;;;;;;;0.10;0.10;;;11.40;99.90;;;;;;5074839;28;20263;-84
2023/05/11 03:26:47;;;;;;;0.00;0.00;;;11.50;99.90;;;;;;5073876;28;20188;-84
2023/05/11 03:29:13;;;;;;;0.10;0.10;;;11.50;99.90;;;;;;5071072;28;20219;-83
2023/05/11 03:31:39;;;;;;;0.10;0.10;;;11.50;99.90;;;;;;5074875;28;20715;-83
2023/05/11 03:34:05;;;;;;;0.00;0.00;;;11.60;99.90;;;;;;5073662;28;20208;-83
2023/05/11 03:36:32;;;;;;;0.03;0.03;;;11.50;99.90;;;;;;5074115;28;20198;-84
2023/05/11 03:38:57;;;;;;;0.10;0.10;;;11.50;99.90;;;;;;5075939;28;20199;-84
2023/05/11 03:41:26;;;;;;;0.10;0.10;;;11.50;99.90;;;;;;5072404;28;20200;-84
2023/05/11 03:43:54;;;;;;;0.10;0.10;;;11.50;99.90;;;;;;5071782;28;20275;-82
2023/05/11 03:46:21;;;;;;;0.10;0.10;;;11.50;99.90;;;;;;5073319;28;20181;-83
2023/05/11 03:48:48;;;;;;;0.10;0.10;;;11.50;99.90;;;;;;5074691;28;20192;-84
2023/05/11 03:51:14;;;;;;;0.10;0.10;;;11.60;99.90;;;;;;5073127;28;20213;-84
2023/05/11 03:53:40;;;;;;;0.10;0.10;;;11.60;99.90;;;;;;5072420;28;20205;-83
2023/05/11 03:56:06;;;;;;;0.10;0.10;;;11.60;99.90;;;;;;5073551;28;20181;-84
2023/05/11 03:58:32;;;;;;;0.10;0.10;;;11.60;99.90;;;;;;5071620;28;20184;-83
2023/05/11 04:00:58;;;;;;;0.10;0.10;;;11.50;99.90;;;;;;5072628;28;20204;-84
2023/05/11 04:03:23;;;;;;;0.10;0.10;;;11.40;99.90;;;;;;5075243;28;20245;-84
2023/05/11 04:05:49;;;;;;;0.10;0.10;;;11.40;99.90;;;;;;5073309;28;20533;-81
2023/05/11 04:08:14;;;;;;;0.10;0.10;;;11.40;99.90;;;;;;5073925;28;20254;-83
2023/05/11 04:10:40;;;;;;;0.10;0.10;;;11.30;99.90;;;;;;5078908;28;20260;-82
2023/05/11 04:13:06;;;;;;;0.10;0.10;;;11.40;99.90;;;;;;5074277;28;20224;-83
2023/05/11 04:15:32;;;;;;;0.00;0.00;;;11.40;99.90;;;;;;5073981;28;20213;-84
2023/05/11 04:17:57;;;;;;;0.00;0.00;;;11.30;99.90;;;;;;5076534;28;20584;-84
2023/05/11 04:20:23;;;;;;;0.00;0.00;;;11.30;99.90;;;;;;5074578;28;20515;-83
2023/05/11 04:22:48;;;;;;;0.10;0.10;;;11.30;99.90;;;;;;5072826;28;20274;-83
2023/05/11 04:25:14;;;;;;;0.10;0.10;;;11.30;99.90;;;;;;5072843;28;20192;-84
2023/05/11 04:27:39;;;;;;;0.10;0.10;;;11.30;99.90;;;;;;5075519;28;20194;-83
2023/05/11 04:30:06;;;;;;;0.07;0.07;;;11.30;99.90;;;;;;5072959;28;20180;-84
2023/05/11 04:32:32;;;;;;;0.00;0.00;;;11.40;99.90;;;;;;5072206;28;20204;-83
2023/05/11 04:34:57;;;;;;;0.10;0.10;;;11.40;99.90;;;;;;5072022;28;20831;-84
2023/05/11 04:37:23;;;;;;;0.10;0.10;;;11.50;99.90;;;;;;5072208;28;20193;-83
2023/05/11 04:39:48;;;;;;;0.10;0.10;;;11.60;99.90;;;;;;5071515;28;20177;-83
2023/05/11 04:42:14;;;;;;;0.10;0.10;;;11.60;99.90;;;;;;5074387;28;20996;-84
2023/05/11 04:44:39;;;;;;;0.10;0.10;;;11.70;99.90;;;;;;5071367;28;20191;-84
2023/05/11 04:47:05;;;;;;;0.10;0.10;;;11.70;99.90;;;;;;5072968;28;20186;-85
2023/05/11 04:49:30;;;;;;;0.10;0.10;;;11.70;99.90;;;;;;5071700;28;20300;-83
2023/05/11 04:51:56;;;;;;;0.10;0.10;;;11.80;99.90;;;;;;5072931;28;20200;-85
2023/05/11 04:54:21;;;;;;;0.10;0.10;;;11.90;99.90;;;;;;5073495;28;20212;-84
2023/05/11 04:56:47;;;;;;;0.10;0.10;;;11.90;99.90;;;;;;5071552;28;20187;-82
2023/05/11 04:59:13;;;;;;;0.10;0.10;;;12.00;99.90;;;;;;5072326;28;20672;-82
2023/05/11 05:01:38;;;;;;;0.10;0.10;;;12.00;99.90;;;;;;5072142;28;20199;-83
2023/05/11 05:04:04;;;;;;;0.10;0.10;;;12.00;99.90;;;;;;5070376;28;20191;-83
2023/05/11 05:06:31;;;;;;;0.10;0.10;;;12.00;99.90;;;;;;5073656;28;20212;-84
2023/05/11 05:08:56;;;;;;;0.10;0.10;;;12.00;99.90;;;;;;5072605;28;20325;-84
2023/05/11 05:11:23;;;;;;;0.10;0.10;;;12.10;99.90;;;;;;5075140;28;20643;-83
2023/05/11 05:13:48;;;;;;;0.10;0.10;;;12.10;99.90;;;;;;5075740;28;20557;-83
2023/05/11 05:16:13;;;;;;;0.10;0.10;;;12.20;99.90;;;;;;5076835;28;20267;-83
2023/05/11 05:18:39;;;;;;;0.10;0.10;;;12.30;99.90;;;;;;5078607;28;20176;-85
2023/05/11 05:21:05;;;;;;;0.10;0.10;;;12.40;99.90;;;;;;5079329;28;20228;-84
2023/05/11 05:23:30;;;;;;;0.10;0.10;;;12.50;99.90;;;;;;5076836;28;20176;-85
2023/05/11 05:25:56;;;;;;;0.10;0.10;;;12.50;99.90;;;;;;5072513;28;20183;-84
2023/05/11 05:28:21;;;;;;;0.10;0.10;;;12.60;99.90;;;;;;5074862;28;20188;-85
2023/05/11 05:30:47;;;;;;;0.10;0.10;;;12.60;99.90;;;;;;5075329;28;20269;-85
2023/05/11 05:33:13;;;;;;;0.10;0.10;;;12.70;99.90;;;;;;5077203;28;20191;-85
2023/05/11 05:35:38;;;;;;;0.10;0.10;;;12.80;99.90;;;;;;5071941;28;20184;-85
2023/05/11 05:38:03;;;;;;;0.00;0.00;;;13.00;99.90;;;;;;5072105;28;20185;-83
2023/05/11 05:40:29;;;;;;;0.10;0.10;;;13.00;99.90;;;;;;5073361;28;20184;-85
2023/05/11 05:42:56;;;;;;;0.00;0.00;;;13.00;99.90;;;;;;5071298;28;20195;-85
2023/05/11 05:45:21;;;;;;;0.10;0.10;;;13.00;99.90;;;;;;5072517;28;20905;-83
2023/05/11 05:47:48;;;;;;;0.10;0.10;;;13.00;99.90;;;;;;5074975;28;20188;-84
2023/05/11 05:50:14;;;;;;;0.10;0.10;;;13.10;99.90;;;;;;5068230;28;20185;-84
2023/05/11 05:52:40;;;;;;;0.10;0.10;;;13.20;99.90;;;;;;5068386;28;20232;-83
2023/05/11 05:55:06;;;;;;;0.10;0.10;;;13.20;99.90;;;;;;5069815;28;20217;-84
2023/05/11 05:57:32;;;;;;;0.10;0.10;;;13.20;99.90;;;;;;5072196;28;20187;-84
2023/05/11 05:59:57;;;;;;;0.10;0.10;;;13.40;99.90;;;;;;5075511;28;20532;-84
2023/05/11 06:02:23;;;;;;;0.10;0.10;;;13.40;99.90;;;;;;5070066;28;20297;-84
2023/05/11 06:04:48;;;;;;;0.10;0.10;;;13.50;99.90;;;;;;5071128;28;20185;-84
2023/05/11 06:07:14;;;;;;;0.10;0.10;;;13.40;99.90;;;;;;5073344;28;20190;-84
2023/05/11 06:09:39;;;;;;;0.10;0.10;;;13.50;99.90;;;;;;5070113;28;20189;-83
2023/05/11 06:12:05;;;;;;;0.10;0.10;;;13.60;99.90;;;;;;5072018;28;20201;-84
2023/05/11 06:14:32;;;;;;;0.10;0.10;;;13.70;99.90;;;;;;5071904;28;20200;-84
2023/05/11 06:16:58;;;;;;;0.07;0.07;;;13.80;99.90;;;;;;5073471;28;20205;-84
2023/05/11 06:19:23;;;;;;;0.10;0.10;;;13.90;99.90;;;;;;5083441;28;20260;-85
2023/05/11 06:21:49;;;;;;;0.10;0.10;;;14.00;99.90;;;;;;5075945;28;20217;-84
2023/05/11 06:24:14;;;;;;;0.10;0.10;;;14.10;99.90;;;;;;5075862;28;20182;-83
2023/05/11 06:26:40;;;;;;;0.10;0.10;;;14.10;99.90;;;;;;5071620;28;20183;-83
2023/05/11 06:29:06;;;;;;;0.10;0.10;;;14.20;99.90;;;;;;5071986;28;20536;-84
2023/05/11 06:31:32;;;;;;;0.10;0.10;;;14.30;99.90;;;;;;5074957;28;20202;-83
2023/05/11 06:33:58;;;;;;;0.10;0.10;;;14.30;99.90;;;;;;5068887;28;20245;-84
2023/05/11 06:36:24;;;;;;;0.10;0.10;;;14.50;99.90;;;;;;5074245;28;20266;-83
2023/05/11 06:38:49;;;;;;;0.10;0.10;;;14.50;99.90;;;;;;5073478;28;20186;-84
2023/05/11 06:41:15;;;;;;;0.10;0.10;;;14.50;99.90;;;;;;5070138;28;20703;-85
2023/05/11 06:43:41;;;;;;;0.10;0.10;;;14.60;99.90;;;;;;5073007;28;20253;-84
2023/05/11 06:46:06;;;;;;;0.10;0.10;;;14.60;99.90;;;;;;5071790;28;21166;-83
2023/05/11 06:48:32;;;;;;;0.10;0.10;;;14.60;99.90;;;;;;5071095;28;20665;-84
2023/05/11 06:50:57;;;;;;;0.10;0.10;;;14.70;99.90;;;;;;5071778;28;20207;-84
2023/05/11 06:53:23;;;;;;;0.10;0.10;;;14.80;99.90;;;;;;5070203;28;20567;-85
2023/05/11 06:55:49;;;;;;;0.10;0.10;;;14.80;99.90;;;;;;5068780;28;20181;-84
2023/05/11 06:58:15;;;;;;;0.10;0.10;;;14.90;99.90;;;;;;5069355;28;20185;-84
2023/05/11 07:00:41;;;;;;;0.10;0.10;;;15.00;99.90;;;;;;5071145;28;20186;-84
2023/05/11 07:03:06;;;;;;;0.10;0.10;;;14.90;99.90;;;;;;5071975;28;20215;-84
2023/05/11 07:05:32;;;;;;;0.10;0.10;;;15.00;99.90;;;;;;5076668;28;20215;-84
2023/05/11 07:07:58;;;;;;;0.10;0.10;;;15.00;99.90;;;;;;5074155;28;21793;-82
2023/05/11 07:10:24;;;;;;;0.10;0.10;;;15.10;99.90;;;;;;5075474;28;20544;-84
2023/05/11 07:12:50;;;;;;;0.10;0.10;;;15.20;99.90;;;;;;5076034;28;20204;-86
2023/05/11 07:15:15;;;;;;;0.10;0.10;;;15.30;99.90;;;;;;5069555;28;20665;-84
2023/05/11 07:17:41;;;;;;;0.10;0.10;;;15.40;99.90;;;;;;5076410;28;20183;-84
2023/05/11 07:20:07;;;;;;;0.10;0.10;;;15.40;99.90;;;;;;5079224;28;20189;-83
2023/05/11 07:22:33;;;;;;;0.10;0.10;;;15.50;99.90;;;;;;5081351;28;20233;-83
2023/05/11 07:25:00;;;;;;;0.10;0.10;;;15.50;99.90;;;;;;5078753;28;20187;-83
2023/05/11 07:27:25;;;;;;;0.10;0.10;;;15.60;99.90;;;;;;5079029;28;20275;-84
2023/05/11 07:29:51;;;;;;;0.10;0.10;;;15.70;99.90;;;;;;5076723;28;20325;-84
2023/05/11 07:32:17;;;;;;;0.10;0.10;;;15.40;99.90;;;;;;5077982;28;20690;-84
2023/05/11 07:34:43;;;;;;;0.10;0.10;;;15.10;99.90;;;;;;5079325;28;20207;-84
2023/05/11 07:37:08;;;;;;;0.10;0.10;;;15.10;99.90;;;;;;5076591;28;20177;-84
2023/05/11 07:39:34;;;;;;;0.10;0.10;;;15.20;99.90;;;;;;5076615;28;20692;-84
2023/05/11 07:41:59;;;;;;;0.10;0.10;;;15.10;99.90;;;;;;5077180;28;20199;-84
2023/05/11 07:44:25;;;;;;;0.10;0.10;;;14.90;99.90;;;;;;5075130;28;20184;-84
2023/05/11 07:46:51;;;;;;;0.10;0.10;;;14.70;99.90;;;;;;5076246;28;20270;-84
2023/05/11 07:49:16;;;;;;;0.10;0.10;;;14.70;99.90;;;;;;5074790;28;20189;-84
2023/05/11 07:51:42;;;;;;;0.10;0.10;;;15.00;99.90;;;;;;5078716;28;20219;-83
2023/05/11 07:54:07;;;;;;;0.10;0.10;;;14.80;99.90;;;;;;5075430;28;20235;-83
2023/05/11 07:56:33;;;;;;;0.10;0.10;;;14.90;99.90;;;;;;5073993;28;20199;-84
2023/05/11 07:58:58;;;;;;;0.10;0.10;;;15.00;99.90;;;;;;5075905;28;20274;-83
2023/05/11 08:01:24;;;;;;;0.10;0.10;;;14.80;99.90;;;;;;5074661;28;20197;-83
2023/05/11 08:03:49;;;;;;;0.10;0.10;;;15.20;99.90;;;;;;5076506;28;20254;-84
2023/05/11 08:06:15;;;;;;;0.10;0.10;;;15.50;99.90;;;;;;5076431;28;20619;-83
2023/05/11 08:08:40;;;;;;;0.10;0.10;;;15.10;99.90;;;;;;5075943;28;20275;-84
2023/05/11 08:11:06;;;;;;;0.10;0.10;;;15.30;99.90;;;;;;5070556;28;20201;-83
2023/05/11 08:13:31;;;;;;;0.10;0.10;;;15.50;99.90;;;;;;5069779;28;20749;-84
2023/05/11 08:15:57;;;;;;;0.10;0.10;;;15.30;99.90;;;;;;5074625;28;20173;-83
2023/05/11 08:18:22;;;;;;;0.10;0.10;;;15.00;99.90;;;;;;5077098;28;20249;-83
2023/05/11 08:20:48;;;;;;;0.10;0.10;;;14.90;99.90;;;;;;5064443;28;20205;-84
2023/05/11 08:23:17;;;;;;;0.10;0.10;;;14.70;99.90;;;;;;5076674;28;20693;-84
2023/05/11 08:25:50;;;;;;;0.10;0.10;;;14.90;99.90;;;;;;5075640;28;20709;-82
2023/05/11 08:28:17;;;;;;;0.10;0.10;;;15.10;99.90;;;;;;5075233;28;20203;-82
2023/05/11 08:30:42;;;;;;;0.10;0.10;;;15.00;99.90;;;;;;5072323;28;20187;-82
2023/05/11 08:33:08;;;;;;;0.10;0.10;;;15.30;99.90;;;;;;5076027;28;20208;-82
2023/05/11 08:35:34;;;;;;;0.10;0.10;;;15.20;99.90;;;;;;5075403;28;20283;-83
2023/05/11 08:37:59;;;;;;;0.10;0.10;;;15.30;99.90;;;;;;5074983;28;20183;-82
2023/05/11 08:40:27;;;;;;;0.10;0.10;;;15.20;99.90;;;;;;5072568;28;20187;-82
2023/05/11 08:42:54;;;;;;;0.10;0.10;;;15.20;99.90;;;;;;5089210;28;20208;-82
2023/05/11 08:45:22;;;;;;;0.10;0.10;;;15.30;99.90;;;;;;5078225;28;20181;-83
2023/05/11 08:47:48;;;;;;;0.10;0.10;;;15.50;99.90;;;;;;5074143;28;22687;-82
2023/05/11 08:50:14;;;;;;;0.10;0.10;;;15.60;99.90;;;;;;5073193;28;20299;-82
2023/05/11 08:52:40;;;;;;;0.10;0.10;;;15.70;99.90;;;;;;5071218;28;20279;-81
2023/05/11 08:55:07;;;;;;;0.10;0.10;;;15.80;99.90;;;;;;5088248;28;20293;-83
2023/05/11 08:57:33;;;;;;;0.10;0.10;;;15.50;99.90;;;;;;5071020;28;20200;-82
2023/05/11 09:00:01;;;;;;;0.10;0.10;;;15.50;99.90;;;;;;5072245;28;20197;-82
2023/05/11 09:02:27;;;;;;;0.10;0.10;;;15.70;99.90;;;;;;5072658;28;20231;-83
2023/05/11 09:04:53;;;;;;;0.10;0.10;;;16.10;99.90;;;;;;5073826;28;20176;-82
2023/05/11 09:07:21;;;;;;;0.10;0.10;;;16.30;99.90;;;;;;5074258;28;20545;-83
2023/05/11 09:09:47;;;;;;;1.03;1.03;;;16.90;99.90;;;;;;5071418;28;20552;-82
2023/05/11 09:12:13;;;;;;;0.10;0.10;;;16.60;99.90;;;;;;5071428;28;20203;-82
2023/05/11 09:14:38;;;;;;;0.10;0.10;;;16.90;99.90;;;;;;5075673;28;20196;-82
2023/05/11 09:17:04;;;;;;;0.10;0.10;;;17.10;99.90;;;;;;5073614;28;20577;-82
2023/05/11 09:19:30;;;;;;;0.10;0.10;;;17.20;99.90;;;;;;5071406;28;20684;-82
2023/05/11 09:21:57;;;;;;;0.10;0.10;;;17.60;99.90;;;;;;5077780;28;20205;-82
2023/05/11 09:24:23;;;;;;;0.10;0.10;;;17.70;99.90;;;;;;5079434;28;20226;-83
2023/05/11 09:26:49;;;;;;;0.10;0.10;;;17.00;99.90;;;;;;5078223;28;20185;-83
2023/05/11 09:29:19;;;;;;;0.10;0.10;;;17.40;99.90;;;;;;5071714;28;20587;-81
2023/05/11 09:31:46;;;;;;;0.10;0.10;;;16.90;99.90;;;;;;5075454;28;20197;-82
2023/05/11 09:34:16;;;;;;;0.10;0.10;;;16.90;99.90;;;;;;5081733;28;20207;-82
2023/05/11 09:36:51;;;;;;;0.10;0.10;;;17.20;99.90;;;;;;5078072;28;20189;-83
2023/05/11 09:39:26;;;;;;;0.10;0.10;;;17.50;99.90;;;;;;5073601;28;20186;-83
2023/05/11 09:42:13;;;;;;;0.10;0.10;;;17.00;99.90;;;;;;5069046;28;20219;-83
2023/05/11 09:44:42;;;;;;;0.10;0.10;;;17.00;99.90;;;;;;5070482;28;20188;-83
2023/05/11 09:47:14;;;;;;;0.10;0.10;;;17.00;99.90;;;;;;5071661;28;20184;-82
2023/05/11 09:49:42;;;;;;;0.10;0.10;;;17.40;99.90;;;;;;5072001;28;20184;-83
2023/05/11 09:52:13;;;;;;;0.10;0.10;;;17.60;99.90;;;;;;5069907;28;20673;-83
2023/05/11 09:54:46;;;;;;;0.10;0.10;;;18.10;99.90;;;;;;5066588;28;20247;-84
2023/05/11 09:57:29;;;;;;;0.10;0.10;;;18.20;99.90;;;;;;5072983;28;20177;-84
2023/05/11 09:59:58;;;;;;;0.10;0.10;;;17.80;99.90;;;;;;5074138;28;20183;-84
2023/05/11 10:02:25;;;;;;;0.10;0.10;;;17.70;99.90;;;;;;5072862;28;20575;-83
2023/05/11 10:04:53;;;;;;;0.10;0.10;;;18.10;99.90;;;;;;5070715;28;20236;-83
2023/05/11 10:07:32;;;;;;;0.10;0.10;;;17.90;99.90;;;;;;5069876;28;20191;-83
2023/05/11 10:10:06;;;;;;;0.10;0.10;;;18.20;99.90;;;;;;5069142;28;20198;-83
2023/05/11 10:12:33;;;;;;;0.10;0.10;;;18.60;99.90;;;;;;5069471;28;20275;-83
2023/05/11 10:15:05;;;;;;;0.10;0.10;;;18.40;99.90;;;;;;5072507;28;20177;-83
2023/05/11 10:17:31;;;;;;;0.10;0.10;;;18.20;99.90;;;;;;5071645;28;20176;-83
2023/05/11 10:19:57;;;;;;;0.10;0.10;;;18.60;99.90;;;;;;5069514;28;20223;-83
2023/05/11 10:22:24;;;;;;;0.10;0.10;;;18.90;99.90;;;;;;5072758;28;20242;-83
2023/05/11 10:24:51;;;;;;;0.10;0.10;;;18.70;99.90;;;;;;5074934;28;20178;-83
2023/05/11 10:27:17;;;;;;;0.10;0.10;;;18.80;99.90;;;;;;5074578;28;20192;-83
2023/05/11 10:29:44;;;;;;;0.10;0.10;;;18.80;99.90;;;;;;5072229;28;20188;-83
2023/05/11 10:32:11;;;;;;;0.10;0.10;;;18.90;99.90;;;;;;5070556;28;20205;-84
2023/05/11 10:34:40;;;;;;;0.10;0.10;;;18.50;99.90;;;;;;5072511;28;20219;-83
2023/05/11 10:37:07;;;;;;;0.10;0.10;;;18.60;99.90;;;;;;5072193;28;20174;-83
2023/05/11 10:39:36;;;;;;;0.10;0.10;;;18.30;99.90;;;;;;5086967;28;21155;-83
2023/05/11 10:42:21;;;;;;;0.10;0.10;;;18.60;99.90;;;;;;5077506;28;20227;-83
2023/05/11 10:45:12;;;;;;;0.10;0.10;;;18.50;99.90;;;;;;5074699;28;20192;-83
2023/05/11 10:48:08;;;;;;;0.10;0.10;;;17.70;99.90;;;;;;5078110;28;20196;-83
2023/05/11 10:50:46;;;;;;;0.10;0.10;;;17.10;99.90;;;;;;5076386;28;20188;-83
2023/05/11 10:53:25;;;;;;;0.10;0.10;;;17.10;99.90;;;;;;5076116;28;20246;-83
2023/05/11 10:56:17;;;;;;;0.10;0.10;;;17.60;99.90;;;;;;5075199;28;20229;-84
2023/05/11 10:59:23;;;;;;;0.10;0.10;;;17.60;99.90;;;;;;5075776;28;20733;-83
2023/05/11 11:01:57;;;;;;;0.10;0.10;;;17.60;99.90;;;;;;5072618;28;20231;-83
2023/05/11 11:04:22;;;;;;;0.10;0.10;;;17.30;99.90;;;;;;5072095;28;20584;-83
2023/05/11 11:07:03;;;;;;;0.10;0.10;;;17.50;99.90;;;;;;5068312;28;20181;-84
2023/05/11 11:10:04;;;;;;;0.10;0.10;;;17.70;99.90;;;;;;5073864;28;20215;-86
2023/05/11 11:12:33;;;;;;;0.10;0.10;;;17.70;99.90;;;;;;5073656;28;20632;-84
2023/05/11 11:15:05;;;;;;;0.10;0.10;;;17.50;99.90;;;;;;5065118;28;20276;-85
2023/05/11 11:17:34;;;;;;;0.10;0.10;;;17.50;99.90;;;;;;5079171;28;20187;-85
2023/05/11 11:20:06;;;;;;;0.10;0.10;;;17.30;99.90;;;;;;5075694;28;20242;-85
2023/05/11 11:22:37;;;;;;;0.10;0.10;;;17.30;99.90;;;;;;5069076;28;20286;-85
2023/05/11 11:25:06;;;;;;;0.10;0.10;;;16.80;99.90;;;;;;5070494;28;20591;-85
2023/05/11 11:27:44;;;;;;;0.10;0.10;;;17.00;99.90;;;;;;5075279;28;20677;-85
2023/05/11 11:30:20;;;;;;;0.10;0.10;;;17.00;99.90;;;;;;5076763;28;20189;-85
2023/05/11 11:32:47;;;;;;;0.10;0.10;;;17.30;99.90;;;;;;5075596;28;20212;-84
2023/05/11 11:35:40;;;;;;;0.10;0.10;;;17.40;99.90;;;;;;5070487;28;20335;-85
2023/05/11 11:38:14;;;;;;;0.10;0.10;;;17.20;99.90;;;;;;5073737;28;20173;-85
2023/05/11 11:40:44;;;;;;;0.10;0.10;;;17.40;99.90;;;;;;5071911;28;20180;-86
2023/05/11 11:43:18;;;;;;;0.10;0.10;;;17.70;99.90;;;;;;5072776;28;20216;-85
2023/05/11 11:45:56;;;;;;;0.10;0.10;;;17.80;99.90;;;;;;5073376;28;20178;-84
2023/05/11 11:48:28;;;;;;;0.10;0.10;;;17.70;99.90;;;;;;5074499;28;20180;-85
2023/05/11 11:51:11;;;;;;;0.10;0.10;;;17.80;99.90;;;;;;5074199;28;20568;-84
2023/05/11 11:53:36;;;;;;;0.10;0.10;;;17.60;99.90;;;;;;5056858;28;20200;-86
2023/05/11 11:56:14;;;;;;;0.10;0.10;;;17.30;99.90;;;;;;5072932;28;20188;-87
2023/05/11 11:58:45;;;;;;;0.10;0.10;;;16.90;99.90;;;;;;5073543;28;20275;-84
2023/05/11 12:01:13;;;;;;;0.10;0.10;;;16.90;99.90;;;;;;5073141;28;20698;-85
2023/05/11 12:03:40;;;;;;;0.10;0.10;;;17.00;99.90;;;;;;5069621;28;20200;-85
2023/05/11 12:06:07;;;;;;;0.10;0.10;;;17.20;99.90;;;;;;5071982;28;20188;-85
2023/05/11 12:08:35;;;;;;;0.10;0.10;;;17.30;99.90;;;;;;5069468;28;20192;-86
2023/05/11 12:11:02;;;;;;;0.10;0.10;;;17.30;99.90;;;;;;5073585;28;20205;-85
2023/05/11 12:13:28;;;;;;;0.10;0.10;;;17.40;99.90;;;;;;5073760;28;20200;-84
2023/05/11 12:16:11;;;;;;;0.10;0.10;;;17.40;99.90;;;;;;5075143;28;20662;-85
2023/05/11 12:18:37;;;;;;;0.10;0.10;;;17.40;99.90;;;;;;5071198;28;20185;-83
2023/05/11 12:21:02;;;;;;;0.10;0.10;;;17.50;99.90;;;;;;5072395;28;20200;-84
2023/05/11 12:23:29;;;;;;;0.10;0.10;;;17.60;99.90;;;;;;5072012;28;20177;-84
2023/05/11 12:26:07;;;;;;;0.10;0.10;;;17.70;99.90;;;;;;5075304;28;20192;-84
2023/05/11 12:28:33;;;;;;;0.10;0.10;;;17.80;99.90;;;;;;5076948;28;20188;-83
2023/05/11 12:30:58;;;;;;;0.10;0.10;;;17.80;99.90;;;;;;5077625;28;20226;-84
2023/05/11 12:33:24;;;;;;;0.10;0.10;;;17.90;99.90;;;;;;5078867;28;20308;-83
2023/05/11 12:35:55;;;;;;;0.10;0.10;;;18.10;99.90;;;;;;5075831;28;20311;-83
2023/05/11 12:38:21;;;;;;;0.10;0.10;;;18.30;99.90;;;;;;5073256;28;20197;-83
2023/05/11 12:40:51;;;;;;;0.10;0.10;;;18.40;99.90;;;;;;5068288;28;20176;-83
2023/05/11 12:43:18;;;;;;;0.10;0.10;;;18.40;99.90;;;;;;5072755;28;20258;-83
2023/05/11 12:45:45;;;;;;;0.10;0.10;;;18.50;99.90;;;;;;5074321;28;20196;-83
2023/05/11 12:48:11;;;;;;;0.10;0.10;;;18.70;99.90;;;;;;5074410;28;20177;-84
2023/05/11 12:50:42;;;;;;;0.10;0.10;;;18.70;99.90;;;;;;5069294;28;20223;-83
2023/05/11 12:53:18;;;;;;;0.10;0.10;;;18.80;99.90;;;;;;5071458;28;20209;-84